Time;durP1;ratioP1;P1;durP2;ratioP2;P2;SDS_P1;SDS_P2;PMS_P1;PMS_P2;Temp;Humidity;BMP_temperature;BMP_pressure;BME280_temperature;BME280_humidity;BME280_pressure;Samples;Min_cycle;Max_cycle;Signal;HPM_P1;HPM_P2
2021/07/30 00:02:19;;;;;;;;;;;;;;;5.57;100.00;99263.03;5101082;28;19939;-91
2021/07/30 00:04:44;;;;;;;;;;;;;;;5.64;100.00;99264.56;5101115;28;19915;-92
2021/07/30 00:07:10;;;;;;;;;;;;;;;5.54;100.00;99257.03;5101098;28;19911;-92
2021/07/30 03:44:03;;;;;;;;;;;;;;;6.13;100.00;99191.16;5038470;28;19992;-92
2021/07/30 03:46:29;;;;;;;;;;;;;;;6.07;100.00;99186.09;5047548;28;19929;-92
2021/07/30 03:48:54;;;;;;;;;;;;;;;5.95;100.00;99186.47;5063980;28;19929;-89
2021/07/30 03:51:19;;;;;;;;;;;;;;;5.82;100.00;99186.91;5031903;28;19928;-87
2021/07/30 03:53:45;;;;;;;;;;;;;;;5.68;100.00;99188.25;5028821;28;19936;-89
2021/07/30 03:56:13;;;;;;;;;;;;;;;5.69;100.00;99184.72;5028661;28;20299;-88
2021/07/30 03:58:39;;;;;;;;;;;;;;;6.10;100.00;99182.50;5032055;28;19932;-88
2021/07/30 04:01:08;;;;;;;;;;;;;;;6.30;100.00;99179.19;5031878;28;19929;-88
2021/07/30 04:03:34;;;;;;;;;;;;;;;6.38;100.00;99184.19;5029074;28;19929;-88
2021/07/30 04:06:02;;;;;;;;;;;;;;;6.40;100.00;99184.97;5028167;28;19921;-88
2021/07/30 04:08:28;;;;;;;;;;;;;;;6.28;100.00;99175.75;5038322;28;19929;-88
2021/07/30 04:10:53;;;;;;;;;;;;;;;6.14;100.00;99184.09;5039351;28;19987;-88
2021/07/30 04:13:18;;;;;;;;;;;;;;;6.01;100.00;99181.03;5039216;28;19960;-90
2021/07/30 04:15:44;;;;;;;;;;;;;;;5.95;100.00;99183.84;5032165;28;19960;-89
2021/07/30 04:18:09;;;;;;;;;;;;;;;5.94;100.00;99185.63;5055864;28;19932;-88
2021/07/30 04:20:37;;;;;;;;;;;;;;;5.81;100.00;99177.28;5056168;28;19928;-88
2021/07/30 04:23:02;;;;;;;;;;;;;;;5.83;100.00;99179.88;5031638;28;20006;-88
2021/07/30 04:25:27;;;;;;;;;;;;;;;5.77;100.00;99187.94;5054533;28;19929;-89
2021/07/30 04:27:53;;;;;;;;;;;;;;;5.74;100.00;99183.63;5029061;28;19922;-87
2021/07/30 04:30:18;;;;;;;;;;;;;;;5.69;100.00;99182.09;5028745;28;20237;-88
2021/07/30 04:32:43;;;;;;;;;;;;;;;5.66;100.00;99187.44;5031502;28;19959;-88
2021/07/30 04:35:09;;;;;;;;;;;;;;;5.66;100.00;99185.66;5031745;28;19925;-87
2021/07/30 04:37:34;;;;;;;;;;;;;;;5.61;100.00;99190.22;5025364;28;19921;-93
2021/07/30 04:39:59;;;;;;;;;;;;;;;5.52;100.00;99194.00;5038637;28;19931;-93
2021/07/30 04:42:26;;;;;;;;;;;;;;;5.55;100.00;99193.03;5064191;28;19921;-92
2021/07/30 04:44:52;;;;;;;;;;;;;;;5.49;100.00;99183.59;5070710;28;19934;-91
2021/07/30 07:40:30;;;;;;;;;;;;;;;5.05;100.00;99146.41;5100477;22;19925;-92
2021/07/30 07:42:59;;;;;;;;;;;;;;;5.04;100.00;99135.06;5067118;28;20007;-92
2021/07/30 07:45:25;;;;;;;;;;;;;;;5.08;100.00;99134.03;5058089;28;19948;-92
2021/07/30 07:47:51;;;;;;;;;;;;;;;5.07;100.00;99141.97;5028536;28;19921;-90
2021/07/30 07:50:16;;;;;;;;;;;;;;;5.03;100.00;99132.47;5028600;28;19984;-92
2021/07/30 07:52:42;;;;;;;;;;;;;;;5.07;100.00;99136.72;5030877;28;19992;-92
2021/07/30 07:55:08;;;;;;;;;;;;;;;5.06;100.00;99130.63;5027836;28;20036;-93
2021/07/30 07:57:33;;;;;;;;;;;;;;;5.08;100.00;99127.94;5028043;28;19921;-93
2021/07/30 07:59:59;;;;;;;;;;;;;;;5.14;100.00;99117.25;5028106;28;19947;-94
2021/07/30 08:02:24;;;;;;;;;;;;;;;5.12;100.00;99116.41;5027442;28;19925;-92
2021/07/30 08:04:49;;;;;;;;;;;;;;;5.09;100.00;99120.03;5029792;28;20177;-93
2021/07/30 08:07:17;;;;;;;;;;;;;;;5.09;100.00;99117.41;5028098;28;19933;-91
2021/07/30 08:09:43;;;;;;;;;;;;;;;5.15;100.00;99123.34;5027212;28;19921;-95
2021/07/30 08:12:08;;;;;;;;;;;;;;;5.20;100.00;99119.69;5033019;28;19929;-91
2021/07/30 08:14:34;;;;;;;;;;;;;;;5.20;100.00;99116.19;5027871;28;19926;-92
2021/07/30 08:16:59;;;;;;;;;;;;;;;5.21;100.00;99113.50;5032076;28;20301;-90
2021/07/30 08:19:24;;;;;;;;;;;;;;;5.21;100.00;99112.66;5031096;28;19949;-91
2021/07/30 08:21:50;;;;;;;;;;;;;;;5.21;100.00;99108.25;5030980;28;20260;-92
2021/07/30 08:24:15;;;;;;;;;;;;;;;5.21;100.00;99110.88;5031239;28;19967;-93
2021/07/30 08:26:40;;;;;;;;;;;;;;;5.24;100.00;99112.56;5030552;28;19921;-93
2021/07/30 08:29:06;;;;;;;;;;;;;;;5.26;100.00;99110.75;5031650;28;19921;-92
2021/07/30 08:31:31;;;;;;;;;;;;;;;5.25;100.00;99109.88;5030598;28;19921;-91
2021/07/30 08:33:56;;;;;;;;;;;;;;;5.28;100.00;99116.78;5030754;28;20285;-91
2021/07/30 08:36:22;;;;;;;;;;;;;;;5.34;100.00;99107.88;5031007;28;19925;-91
2021/07/30 08:38:47;;;;;;;;;;;;;;;5.33;100.00;99107.03;5030991;28;19947;-93
2021/07/30 08:41:20;;;;;;;;;;;;;;;5.25;100.00;99114.28;5047913;28;19921;-93
2021/07/30 08:43:49;;;;;;;;;;;;;;;5.33;100.00;99111.41;5032273;28;19917;-90
2021/07/30 08:46:16;;;;;;;;;;;;;;;5.30;100.00;99106.25;5031017;28;19922;-92
2021/07/30 08:48:41;;;;;;;;;;;;;;;5.25;100.00;99109.88;5030721;28;20044;-92
2021/07/30 08:51:07;;;;;;;;;;;;;;;5.30;100.00;99101.88;5047746;28;19914;-92
2021/07/30 08:53:32;;;;;;;;;;;;;;;5.32;100.00;99104.44;5047572;28;19929;-92
2021/07/30 08:56:02;;;;;;;;;;;;;;;5.32;100.00;99096.56;5040432;28;19980;-93
2021/07/30 08:58:27;;;;;;;;;;;;;;;5.32;100.00;99096.56;5049627;28;19921;-92
2021/07/30 09:00:53;;;;;;;;;;;;;;;5.39;100.00;99096.31;5049168;28;19978;-92
2021/07/30 09:03:18;;;;;;;;;;;;;;;5.33;100.00;99103.50;5049421;28;19921;-93
2021/07/30 09:05:45;;;;;;;;;;;;;;;5.37;100.00;99086.75;5049798;28;20295;-91
2021/07/30 09:08:19;;;;;;;;;;;;;;;5.31;100.00;99082.53;5048176;28;19921;-91
2021/07/30 09:10:44;;;;;;;;;;;;;;;5.34;100.00;99079.81;5048740;28;19996;-92
2021/07/30 09:13:19;;;;;;;;;;;;;;;5.31;100.00;99077.28;5047703;28;19921;-90
2021/07/30 09:15:45;;;;;;;;;;;;;;;5.39;100.00;99063.91;5033524;28;19996;-90
2021/07/30 09:18:27;;;;;;;;;;;;;;;5.40;100.00;99063.00;5043912;28;19921;-92
2021/07/30 09:20:52;;;;;;;;;;;;;;;5.41;100.00;99067.38;5051394;28;19987;-91
2021/07/30 09:23:21;;;;;;;;;;;;;;;5.40;100.00;99063.00;5050120;28;19921;-90
2021/07/30 09:25:46;;;;;;;;;;;;;;;5.38;100.00;99063.06;5062966;28;19927;-94
2021/07/30 09:28:11;;;;;;;;;;;;;;;5.44;100.00;99064.59;5052175;28;19948;-92
2021/07/30 09:30:37;;;;;;;;;;;;;;;5.53;100.00;99051.16;5051109;28;19921;-92
2021/07/30 09:33:03;;;;;;;;;;;;;;;5.55;100.00;99065.13;5035494;28;19925;-91
2021/07/30 09:35:28;;;;;;;;;;;;;;;5.49;100.00;99052.19;5052585;28;20259;-92
2021/07/30 09:38:12;;;;;;;;;;;;;;;5.52;100.00;99049.47;5050836;28;19921;-91
2021/07/30 09:40:38;;;;;;;;;;;;;;;5.41;100.00;99049.81;5052289;28;20031;-92
2021/07/30 09:43:20;;;;;;;;;;;;;;;5.50;100.00;99050.41;5049371;28;19925;-91
2021/07/30 09:45:46;;;;;;;;;;;;;;;5.50;100.00;99050.41;5046858;28;19921;-91
2021/07/30 09:48:11;;;;;;;;;;;;;;;5.49;100.00;99052.19;5053000;28;19944;-91
2021/07/30 09:50:37;;;;;;;;;;;;;;;5.58;100.00;99051.00;5045565;28;20359;-92
2021/07/30 09:53:03;;;;;;;;;;;;;;;5.58;100.00;99043.97;5051312;28;19936;-92
2021/07/30 09:55:30;;;;;;;;;;;;;;;5.61;100.00;99049.13;5054044;28;19944;-91
2021/07/30 09:58:00;;;;;;;;;;;;;;;5.53;100.00;99045.91;5048805;28;19921;-91
2021/07/30 10:00:26;;;;;;;;;;;;;;;5.57;100.00;99047.53;5054384;28;19921;-91
2021/07/30 10:02:52;;;;;;;;;;;;;;;5.59;100.00;99040.44;5048519;28;19939;-92
2021/07/30 10:05:20;;;;;;;;;;;;;;;5.56;100.00;99040.56;5048964;28;19925;-91
2021/07/30 10:07:45;;;;;;;;;;;;;;;5.55;100.00;99037.97;5051655;28;19921;-91
2021/07/30 10:10:25;;;;;;;;;;;;;;;5.59;100.00;99031.72;5051314;28;19928;-91
2021/07/30 10:12:54;;;;;;;;;;;;;;;5.61;100.00;99038.63;5049468;28;19921;-90
2021/07/30 10:15:20;;;;;;;;;;;;;;;5.61;100.00;99027.25;5043418;28;19979;-91
2021/07/30 10:17:47;;;;;;;;;;;;;;;5.62;100.00;99024.56;5044934;28;19953;-90
2021/07/30 10:20:13;;;;;;;;;;;;;;;5.66;100.00;99022.69;5047925;28;19925;-91
2021/07/30 10:22:48;;;;;;;;;;;;;;;5.62;100.00;99024.56;5049097;28;19921;-91
2021/07/30 10:25:21;;;;;;;;;;;;;;;5.61;100.00;99017.59;5049430;28;19921;-91
2021/07/30 10:27:48;;;;;;;;;;;;;;;5.67;100.00;99018.31;5041794;28;19929;-91
2021/07/30 10:30:17;;;;;;;;;;;;;;;5.64;100.00;99017.50;5049938;28;19921;-91
2021/07/30 10:32:42;;;;;;;;;;;;;;;5.63;100.00;99002.66;5049645;28;20015;-92
2021/07/30 10:35:08;;;;;;;;;;;;;;;5.68;100.00;99007.75;5032634;28;19988;-93
2021/07/30 10:37:36;;;;;;;;;;;;;;;5.74;100.00;99006.66;5049541;28;19976;-91
2021/07/30 10:40:12;;;;;;;;;;;;;;;5.77;100.00;99002.13;5051101;28;19947;-91
2021/07/30 10:42:57;;;;;;;;;;;;;;;5.74;100.00;98996.16;5058729;28;19968;-93
2021/07/30 10:45:23;;;;;;;;;;;;;;;5.71;100.00;98986.63;5047287;28;19944;-91
2021/07/30 10:48:08;;;;;;;;;;;;;;;5.75;100.00;98988.19;5047372;28;20277;-91
2021/07/30 10:50:40;;;;;;;;;;;;;;;5.74;100.00;98985.63;5044139;28;20042;-90
2021/07/30 10:53:24;;;;;;;;;;;;;;;5.77;100.00;98986.38;5042281;28;19921;-92
2021/07/30 10:55:51;;;;;;;;;;;;;;;5.79;100.00;98992.44;5028359;28;19925;-90
2021/07/30 10:58:16;;;;;;;;;;;;;;;5.77;100.00;98988.16;5041701;28;19921;-93
2021/07/30 11:00:55;;;;;;;;;;;;;;;5.76;100.00;98979.41;5048237;28;19931;-92
2021/07/30 11:03:20;;;;;;;;;;;;;;;5.80;100.00;98982.78;5082113;28;19932;-92
2021/07/30 11:06:04;;;;;;;;;;;;;;;5.73;100.00;98974.25;5098547;28;19916;-92
2021/07/30 11:08:29;;;;;;;;;;;;;;;5.85;100.00;98969.47;5070325;28;19921;-92
2021/07/30 11:11:06;;;;;;;;;;;;;;;5.71;100.00;98975.22;5100978;28;19948;-93
2021/07/30 11:13:32;;;;;;;;;;;;;;;5.74;100.00;98961.97;5068314;28;19955;-92
2021/07/30 11:16:10;;;;;;;;;;;;;;;5.79;100.00;98968.78;5073224;28;19921;-92
2021/07/30 11:18:38;;;;;;;;;;;;;;;5.79;100.00;98967.91;5082600;28;19931;-92
2021/07/30 11:21:04;;;;;;;;;;;;;;;5.80;100.00;98965.22;5072009;28;19970;-91
2021/07/30 11:23:34;;;;;;;;;;;;;;;5.78;100.00;98960.97;5069868;28;19921;-90
2021/07/30 11:26:03;;;;;;;;;;;;;;;5.80;100.00;98964.38;5067889;28;19917;-91
2021/07/30 11:28:57;;;;;;;;;;;;;;;;;;;;;
2021/07/30 11:31:23;;;;;;;;;;;;;;;5.78;100.00;98967.06;5071141;28;19992;-91
2021/07/30 11:33:49;;;;;;;;;;;;;;;5.87;100.00;98967.63;5070164;28;19936;-90
2021/07/30 11:36:17;;;;;;;;;;;;;;;5.82;100.00;98958.16;5058519;28;19932;-91
2021/07/30 11:39:13;;;;;;;;;;;;;;;5.82;100.00;98965.16;5071039;28;19921;-91
2021/07/30 11:41:45;;;;;;;;;;;;;;;5.85;100.00;98954.53;5061799;28;19928;-91
2021/07/30 11:44:11;;;;;;;;;;;;;;;5.89;100.00;98957.91;5077188;28;19954;-91
2021/07/30 11:46:36;;;;;;;;;;;;;;;5.83;100.00;98966.91;5072498;28;19936;-91
2021/07/30 11:49:11;;;;;;;;;;;;;;;5.80;100.00;98959.97;5073937;28;19928;-90
2021/07/30 11:51:37;;;;;;;;;;;;;;;5.83;100.00;98959.00;5071847;28;19921;-91
2021/07/30 11:54:05;;;;;;;;;;;;;;;5.80;100.00;98953.88;5073647;28;20002;-92
2021/07/30 11:56:57;;;;;;;;;;;;;;;5.85;100.00;98946.66;5072319;28;19921;-91
2021/07/30 11:59:30;;;;;;;;;;;;;;;5.86;100.00;98944.91;5055772;28;19921;-91
2021/07/30 12:02:01;;;;;;;;;;;;;;;5.89;100.00;98948.28;5059762;28;20288;-91
2021/07/30 12:04:27;;;;;;;;;;;;;;;5.83;100.00;98948.50;5081626;28;19921;-93
2021/07/30 12:06:58;;;;;;;;;;;;;;;5.90;100.00;98946.50;5071234;28;19948;-92
2021/07/30 12:09:25;;;;;;;;;;;;;;;5.86;100.00;98951.00;5072997;28;19921;-91
2021/07/30 12:11:55;;;;;;;;;;;;;;;5.94;100.00;98954.22;5073973;28;19928;-91
2021/07/30 12:14:22;;;;;;;;;;;;;;;5.88;100.00;98951.81;5072978;28;20004;-92
2021/07/30 12:16:48;;;;;;;;;;;;;;;5.91;100.00;98940.31;5074011;28;19960;-92
2021/07/30 12:19:13;;;;;;;;;;;;;;;5.91;100.00;98940.31;5073533;28;19920;-91
2021/07/30 12:22:10;;;;;;;;;;;;;;;5.95;100.00;98934.91;5075662;28;19917;-91
2021/07/30 12:24:49;;;;;;;;;;;;;;;5.93;100.00;98935.84;5045338;28;19934;-91
2021/07/30 12:27:19;;;;;;;;;;;;;;;5.93;100.00;98934.06;5094053;28;20004;-91
2021/07/30 12:29:46;;;;;;;;;;;;;;;5.95;100.00;98926.13;5073975;28;20288;-90
2021/07/30 12:32:20;;;;;;;;;;;;;;;5.94;100.00;98932.31;5072985;28;19925;-92
2021/07/30 12:35:04;;;;;;;;;;;;;;;5.99;100.00;98933.03;5067499;28;19925;-91
2021/07/30 12:37:30;;;;;;;;;;;;;;;6.03;100.00;98918.88;5061835;28;19921;-92
2021/07/30 12:40:03;;;;;;;;;;;;;;;6.04;100.00;98914.47;5076208;28;19948;-92
2021/07/30 12:42:29;;;;;;;;;;;;;;;6.01;100.00;98920.69;5075784;28;19905;-93
2021/07/30 12:45:08;;;;;;;;;;;;;;;6.00;100.00;98914.56;5062767;28;20300;-91
2021/07/30 12:47:41;;;;;;;;;;;;;;;6.05;100.00;98918.78;5056961;28;19929;-92
2021/07/30 12:50:25;;;;;;;;;;;;;;;6.01;100.00;98925.94;5069427;28;19955;-92
2021/07/30 12:53:16;;;;;;;;;;;;;;;6.05;100.00;98910.88;5059294;28;19905;-91
2021/07/30 12:55:55;;;;;;;;;;;;;;;5.97;100.00;98909.44;5070409;28;19924;-91
2021/07/30 12:58:24;;;;;;;;;;;;;;;6.03;100.00;98913.59;5057194;28;19920;-91
2021/07/30 13:00:51;;;;;;;;;;;;;;;5.99;100.00;98907.59;5072488;28;19927;-91
2021/07/30 13:03:17;;;;;;;;;;;;;;;5.99;100.00;98901.47;5072980;28;19921;-91
2021/07/30 13:05:45;;;;;;;;;;;;;;;6.02;100.00;98893.47;5073438;28;19936;-91
2021/07/30 13:08:11;;;;;;;;;;;;;;;6.11;100.00;98892.25;5073111;28;19955;-91
2021/07/30 13:10:36;;;;;;;;;;;;;;;6.12;100.00;98883.44;5074258;28;19920;-92
2021/07/30 13:13:02;;;;;;;;;;;;;;;6.08;100.00;98889.72;5074551;28;19925;-91
2021/07/30 13:15:28;;;;;;;;;;;;;;;6.03;100.00;98873.28;5076428;28;19909;-91
2021/07/30 13:17:53;;;;;;;;;;;;;;;6.08;100.00;98887.09;5075890;28;19921;-91
2021/07/30 13:20:19;;;;;;;;;;;;;;;6.07;100.00;98885.41;5075556;28;19921;-92
2021/07/30 13:22:44;;;;;;;;;;;;;;;5.99;100.00;98880.44;5075254;28;19921;-91
2021/07/30 13:25:10;;;;;;;;;;;;;;;6.01;100.00;98883.84;5074792;28;19953;-91
2021/07/30 13:27:35;;;;;;;;;;;;;;;6.04;100.00;98875.00;5074149;28;19967;-91
2021/07/30 13:30:01;;;;;;;;;;;;;;;6.07;100.00;98872.25;5072749;28;19973;-93
2021/07/30 13:32:26;;;;;;;;;;;;;;;6.09;100.00;98867.78;5074479;28;19917;-91
2021/07/30 13:34:51;;;;;;;;;;;;;;;6.02;100.00;98858.44;5076296;28;19916;-91
2021/07/30 13:37:17;;;;;;;;;;;;;;;6.06;100.00;98854.75;5076772;28;19952;-91
2021/07/30 13:39:43;;;;;;;;;;;;;;;6.05;100.00;98855.66;5076492;28;19920;-91
2021/07/30 13:42:10;;;;;;;;;;;;;;;6.08;100.00;98858.19;5075843;28;19927;-90
2021/07/30 13:44:36;;;;;;;;;;;;;;;6.02;100.00;98866.31;5076667;28;19929;-91
2021/07/30 13:47:01;;;;;;;;;;;;;;;6.08;100.00;98859.06;5085154;28;19920;-91
2021/07/30 13:49:27;;;;;;;;;;;;;;;6.13;100.00;98850.97;5095071;28;19920;-91
2021/07/30 13:51:52;;;;;;;;;;;;;;;6.09;100.00;98849.38;5095191;28;20435;-91
2021/07/30 13:54:17;;;;;;;;;;;;;;;6.12;100.00;98849.25;5096656;28;19931;-92
2021/07/30 13:57:02;;;;;;;;;;;;;;;6.12;100.00;98846.63;5128040;27;20041;-92
2021/07/30 13:59:28;;;;;;;;;;;;;;;6.13;100.00;98846.56;5095465;28;19951;-92
2021/07/30 14:01:54;;;;;;;;;;;;;;;6.10;100.00;98840.59;5095705;28;19909;-91
2021/07/30 14:04:19;;;;;;;;;;;;;;;6.10;100.00;98840.59;5094745;28;19950;-90
2021/07/30 14:06:45;;;;;;;;;;;;;;;6.06;100.00;98844.25;5095859;28;19920;-91
2021/07/30 14:09:10;;;;;;;;;;;;;;;6.10;100.00;98840.59;5095165;28;19901;-91
2021/07/30 14:11:36;;;;;;;;;;;;;;;6.11;100.00;98837.88;5092904;28;19992;-92
2021/07/30 14:14:01;;;;;;;;;;;;;;;6.07;100.00;98832.81;5095352;28;19909;-92
2021/07/30 14:16:26;;;;;;;;;;;;;;;6.10;100.00;98835.31;5129314;27;19925;-91
2021/07/30 14:18:52;;;;;;;;;;;;;;;6.09;100.00;98836.22;5129460;27;19936;-92
2021/07/30 14:21:17;;;;;;;;;;;;;;;6.13;100.00;98829.94;5094963;28;19905;-91
2021/07/30 14:23:45;;;;;;;;;;;;;;;6.05;100.00;98832.88;5094709;28;19971;-91
2021/07/30 14:26:10;;;;;;;;;;;;;;;6.15;100.00;98825.47;5094122;28;19943;-90
2021/07/30 14:28:36;;;;;;;;;;;;;;;6.21;100.00;98838.38;5091111;28;20363;-93
2021/07/30 14:31:02;;;;;;;;;;;;;;;6.11;100.00;98845.78;5126529;28;19935;-92
2021/07/30 14:33:27;;;;;;;;;;;;;;;6.14;100.00;98843.03;5090495;28;19928;-92
2021/07/30 14:35:52;;;;;;;;;;;;;;;6.11;100.00;98842.28;5090875;28;19943;-93
2021/07/30 14:38:17;;;;;;;;;;;;;;;6.14;100.00;98831.63;5095536;28;19919;-93
2021/07/30 14:40:43;;;;;;;;;;;;;;;6.17;100.00;98837.66;5091439;28;19939;-93
2021/07/30 14:43:08;;;;;;;;;;;;;;;6.20;100.00;98834.03;5090732;28;19920;-92
2021/07/30 14:45:35;;;;;;;;;;;;;;;6.15;100.00;98825.47;5091831;28;19920;-92
2021/07/30 14:48:02;;;;;;;;;;;;;;;6.19;100.00;98824.44;5093593;28;19932;-93
2021/07/30 14:50:27;;;;;;;;;;;;;;;6.19;100.00;98827.06;5092893;28;19921;-92
2021/07/30 14:52:53;;;;;;;;;;;;;;;6.17;100.00;98821.88;5092740;28;19959;-93
2021/07/30 14:55:19;;;;;;;;;;;;;;;6.20;100.00;98825.28;5092362;28;19921;-92
2021/07/30 14:57:44;;;;;;;;;;;;;;;6.24;100.00;98817.22;5093468;28;19935;-93
2021/07/30 15:00:09;;;;;;;;;;;;;;;6.23;100.00;98815.50;5094007;28;19924;-92
2021/07/30 15:02:35;;;;;;;;;;;;;;;6.18;100.00;98820.94;5093968;28;19936;-91
2021/07/30 15:05:00;;;;;;;;;;;;;;;6.24;100.00;98821.59;5093801;28;19909;-91
2021/07/30 15:07:25;;;;;;;;;;;;;;;6.26;100.00;98819.78;5085593;28;19947;-91
2021/07/30 15:09:51;;;;;;;;;;;;;;;6.25;100.00;98824.16;5080972;28;19913;-91
2021/07/30 15:12:16;;;;;;;;;;;;;;;6.21;100.00;98822.59;5080805;28;19940;-92
2021/07/30 15:14:46;;;;;;;;;;;;;;;6.27;100.00;98827.59;5081294;28;19924;-91
2021/07/30 15:17:12;;;;;;;;;;;;;;;6.22;100.00;98829.53;5081085;28;19909;-92
2021/07/30 15:19:42;;;;;;;;;;;;;;;6.32;100.00;98824.78;5080776;28;19915;-92
2021/07/30 15:22:07;;;;;;;;;;;;;;;6.25;100.00;98821.53;5076858;28;19952;-90
2021/07/30 15:24:32;;;;;;;;;;;;;;;6.29;100.00;98831.03;5060104;28;19909;-91
2021/07/30 15:26:58;;;;;;;;;;;;;;;6.36;100.00;98827.22;5061186;28;19916;-91
2021/07/30 15:29:23;;;;;;;;;;;;;;;6.27;100.00;98816.22;5061106;28;19968;-89
2021/07/30 15:31:53;;;;;;;;;;;;;;;6.27;100.00;98822.34;5061002;28;19977;-91
2021/07/30 15:34:18;;;;;;;;;;;;;;;6.32;100.00;98827.44;5061056;28;19909;-91
2021/07/30 15:36:44;;;;;;;;;;;;;;;6.32;100.00;98825.66;5060828;28;19920;-92
2021/07/30 15:39:09;;;;;;;;;;;;;;;6.36;100.00;98829.84;5060882;28;19925;-90
2021/07/30 15:41:35;;;;;;;;;;;;;;;6.36;100.00;98829.84;5063341;28;19952;-91
2021/07/30 15:44:02;;;;;;;;;;;;;;;6.39;100.00;98828.03;5080650;28;19965;-91
2021/07/30 15:46:27;;;;;;;;;;;;;;;6.30;100.00;98827.50;5078597;28;19909;-91
2021/07/30 15:48:53;;;;;;;;;;;;;;;6.31;100.00;98829.19;5114389;28;19931;-91
2021/07/30 15:51:18;;;;;;;;;;;;;;;6.31;100.00;98829.19;5080479;28;19918;-92
2021/07/30 15:53:46;;;;;;;;;;;;;;;6.27;100.00;98838.13;5078454;28;19979;-91
2021/07/30 15:56:12;;;;;;;;;;;;;;;6.33;100.00;98837.88;5080551;28;19908;-91
2021/07/30 15:58:39;;;;;;;;;;;;;;;6.27;100.00;98839.88;5078888;28;19909;-91
2021/07/30 16:01:05;;;;;;;;;;;;;;;6.28;100.00;98834.56;5083126;28;19938;-92
2021/07/30 16:03:43;;;;;;;;;;;;;;;;;;;;;
2021/07/30 16:06:09;;;;;;;;;;;;;;;6.34;100.00;98838.75;5100933;28;19912;-91
2021/07/30 16:08:35;;;;;;;;;;;;;;;6.31;100.00;98839.72;5080338;28;19916;-90
2021/07/30 16:11:26;;;;;;;;;;;;;;;6.30;100.00;98838.00;5091647;28;20004;-91
2021/07/30 16:13:53;;;;;;;;;;;;;;;6.35;100.00;98830.78;5082924;28;19916;-91
2021/07/30 16:16:19;;;;;;;;;;;;;;;6.39;100.00;98833.28;5087564;28;19924;-91
2021/07/30 16:18:48;;;;;;;;;;;;;;;6.31;100.00;98834.44;5087600;28;19921;-91
2021/07/30 16:21:14;;;;;;;;;;;;;;;6.36;100.00;98840.38;5094269;28;19912;-91
2021/07/30 16:23:46;;;;;;;;;;;;;;;6.32;100.00;98841.44;5086943;28;20019;-90
2021/07/30 16:26:31;;;;;;;;;;;;;;;;;;;;;
2021/07/30 16:28:59;;;;;;;;;;;;;;;6.33;100.00;98843.16;5101846;28;19948;-92
2021/07/30 16:31:24;;;;;;;;;;;;;;;6.38;100.00;98847.34;5113075;28;19975;-92
2021/07/30 16:33:51;;;;;;;;;;;;;;;6.39;100.00;98841.19;5154070;27;19916;-92
2021/07/30 16:36:26;;;;;;;;;;;;;;;6.40;100.00;98849.03;5120199;28;19940;-93
2021/07/30 16:39:05;;;;;;;;;;;;;;;6.38;100.00;98847.34;5139211;28;19937;-92
2021/07/30 16:41:31;;;;;;;;;;;;;;;6.34;100.00;98844.84;5134929;27;19915;-92
2021/07/30 16:43:59;;;;;;;;;;;;;;;6.33;100.00;98837.88;5098445;28;20007;-93
2021/07/30 16:46:24;;;;;;;;;;;;;;;6.32;100.00;98843.22;5116861;28;19924;-93
2021/07/30 16:51:25;;;;;;;;;;;;;;;6.40;100.00;98845.50;5369625;22;19908;-92
2021/07/30 16:53:50;;;;;;;;;;;;;;;6.44;100.00;98844.47;5102853;28;19908;-90
2021/07/30 16:56:20;;;;;;;;;;;;;;;6.39;100.00;98843.81;5102495;28;19924;-91
2021/07/30 16:58:46;;;;;;;;;;;;;;;6.40;100.00;98842.88;5101974;28;19936;-91
2021/07/30 17:01:18;;;;;;;;;;;;;;;6.32;100.00;98841.44;5101854;28;19915;-93
2021/07/30 17:06:13;;;;;;;;;;;;;;;8.84;100.00;98844.09;5088213;28;19932;-90
2021/07/30 17:08:44;;;;;;;;;;;;;;;7.32;100.00;98852.13;5074622;28;19927;-90
2021/07/30 17:11:14;;;;;;;;;;;;;;;6.92;100.00;98848.59;5078188;28;19977;-91
2021/07/30 17:13:42;;;;;;;;;;;;;;;6.83;100.00;98846.34;5076614;28;20019;-91
2021/07/30 17:16:14;;;;;;;;;;;;;;;6.67;100.00;98849.66;5105151;28;19935;-90
2021/07/30 17:18:52;;;;;;;;;;;;;;;8.50;100.00;98843.16;5106659;28;20007;-91
2021/07/30 17:21:21;;;;;;;;;;;;;;;8.18;100.00;98834.13;5089691;28;19935;-91
2021/07/30 17:23:53;;;;;;;;;;;;;;;7.34;100.00;98850.31;5076550;28;19965;-90
2021/07/30 17:26:26;;;;;;;;;;;;;;;7.04;100.00;98848.06;5093988;28;19920;-91
2021/07/30 17:28:55;;;;;;;;;;;;;;;6.91;100.00;98849.53;5094945;28;19927;-90
2021/07/30 17:31:21;;;;;;;;;;;;;;;6.79;100.00;98857.94;5078266;28;19931;-92
2021/07/30 17:34:07;;;;;;;;;;;;;;;6.68;100.00;98853.97;5097412;28;19920;-91
2021/07/30 17:36:40;;;;;;;;;;;;;;;6.67;100.00;98848.78;5076774;28;19925;-90
2021/07/30 17:39:15;;;;;;;;;;;;;;;6.61;100.00;98851.69;5074478;28;19928;-91
2021/07/30 17:41:41;;;;;;;;;;;;;;;6.68;100.00;98848.72;5075637;28;19920;-93
2021/07/30 17:44:11;;;;;;;;;;;;;;;6.56;100.00;98857.13;5075436;28;19920;-92
2021/07/30 17:46:37;;;;;;;;;;;;;;;6.48;100.00;98854.81;5092808;28;19939;-90
2021/07/30 17:49:06;;;;;;;;;;;;;;;6.48;100.00;98856.59;5077700;28;19967;-89
2021/07/30 17:51:32;;;;;;;;;;;;;;;6.52;100.00;98852.91;5078110;28;19920;-90
2021/07/30 17:54:00;;;;;;;;;;;;;;;6.43;100.00;98854.16;5078406;28;19950;-90
2021/07/30 17:59:17;;;;;;;;;;;;;;;6.45;100.00;98862.84;5077805;28;19938;-91
2021/07/30 18:01:47;;;;;;;;;;;;;;;6.38;100.00;98852.63;5087416;28;19924;-89
2021/07/30 18:04:28;;;;;;;;;;;;;;;;;;;;;
2021/07/30 18:07:01;;;;;;;;;;;;;;;6.41;100.00;98869.13;5088355;28;20016;-91
2021/07/30 18:09:27;;;;;;;;;;;;;;;6.48;100.00;98864.50;5075539;28;19978;-92
2021/07/30 18:12:03;;;;;;;;;;;;;;;;;;;;;
2021/07/30 18:16:59;;;;;;;;;;;;;;;6.41;100.00;98868.28;5090027;28;19932;-90
2021/07/30 18:25:08;;;;;;;;;;;;;;;6.31;100.00;98867.81;5065693;28;19931;-89
2021/07/30 18:27:34;;;;;;;;;;;;;;;6.29;100.00;98867.88;5054365;28;20259;-90
2021/07/30 18:30:10;;;;;;;;;;;;;;;6.34;100.00;98863.25;5058344;28;20065;-89
2021/07/30 18:33:04;;;;;;;;;;;;;;;6.29;100.00;98881.00;5053155;28;19920;-90
2021/07/30 18:35:30;;;;;;;;;;;;;;;6.29;100.00;98881.00;5051534;28;19924;-90
2021/07/30 18:37:56;;;;;;;;;;;;;;;6.44;100.00;98881.31;5050782;28;19928;-90
2021/07/30 18:40:37;;;;;;;;;;;;;;;6.27;100.00;98884.63;5057294;28;19920;-90
2021/07/30 18:43:03;;;;;;;;;;;;;;;6.27;100.00;98887.25;5080753;28;19964;-89
2021/07/30 18:45:40;;;;;;;;;;;;;;;6.36;100.00;98885.09;5077846;28;19967;-90
2021/07/30 18:48:27;;;;;;;;;;;;;;;;;;;;;
2021/07/30 18:50:53;;;;;;;;;;;;;;;6.30;100.00;98895.91;5095938;28;19942;-90
2021/07/30 18:53:22;;;;;;;;;;;;;;;6.25;100.00;98900.47;5102652;28;19998;-90
2021/07/30 18:55:58;;;;;;;;;;;;;;;;;;;;;
2021/07/30 18:58:27;;;;;;;;;;;;;;;6.27;100.00;98898.66;5104990;28;19920;-89
2021/07/30 19:01:04;;;;;;;;;;;;;;;6.31;100.00;98892.31;5080393;28;19920;-89
2021/07/30 19:03:31;;;;;;;;;;;;;;;6.37;100.00;98899.13;5089602;28;19948;-88
2021/07/30 19:06:07;;;;;;;;;;;;;;;6.34;100.00;98888.72;5092749;28;19927;-90
2021/07/30 19:08:45;;;;;;;;;;;;;;;6.28;100.00;98892.44;5104527;28;19923;-89
2021/07/30 19:11:22;;;;;;;;;;;;;;;6.33;100.00;98894.91;5067059;28;19980;-91
2021/07/30 19:13:57;;;;;;;;;;;;;;;6.27;100.00;98895.13;5091272;28;19990;-91
2021/07/30 19:18:56;;;;;;;;;;;;;;;6.26;100.00;98904.81;5069949;28;19955;-90
2021/07/30 19:21:33;;;;;;;;;;;;;;;6.28;100.00;98912.66;5061543;28;19971;-90
2021/07/30 19:24:05;;;;;;;;;;;;;;;6.43;100.00;98905.91;5075293;28;19928;-90
2021/07/30 19:26:33;;;;;;;;;;;;;;;6.29;100.00;98909.09;5074194;28;19924;-88
2021/07/30 19:29:03;;;;;;;;;;;;;;;6.36;100.00;98911.41;5080336;28;19924;-88
2021/07/30 19:32:04;;;;;;;;;;;;;;;;;;;;;
2021/07/30 19:34:34;;;;;;;;;;;;;;;6.30;100.00;98922.22;5071590;28;19928;-92
2021/07/30 19:37:01;;;;;;;;;;;;;;;6.23;100.00;98920.72;5055951;28;19971;-90
2021/07/30 19:39:40;;;;;;;;;;;;;;;6.20;100.00;98930.50;5058538;28;19965;-90
2021/07/30 19:42:08;;;;;;;;;;;;;;;6.22;100.00;98928.66;5056333;28;19978;-89
2021/07/30 19:44:34;;;;;;;;;;;;;;;6.21;100.00;98935.72;5062852;28;19920;-90
2021/07/30 19:47:04;;;;;;;;;;;;;;;6.21;100.00;98943.59;5081609;28;19955;-90
2021/07/30 19:49:30;;;;;;;;;;;;;;;6.24;100.00;98940.84;5097746;28;20222;-89
2021/07/30 19:52:08;;;;;;;;;;;;;;;6.26;100.00;98946.91;5112526;28;19926;-90